sensor_id;sensor_type;location;lat;lon;timestamp;P1;durP1;ratioP1;P2;durP2;ratioP2
76552;SDS011;65395;53.168;18.156;2023-11-19T00:00:29;25.10;;;11.20;;
76552;SDS011;65395;53.168;18.156;2023-11-19T00:03:16;24.40;;;10.80;;
76552;SDS011;65395;53.168;18.156;2023-11-19T00:05:44;20.90;;;11.00;;
76552;SDS011;65395;53.168;18.156;2023-11-19T00:08:11;25.40;;;12.10;;
76552;SDS011;65395;53.168;18.156;2023-11-19T00:10:38;27.50;;;11.10;;
76552;SDS011;65395;53.168;18.156;2023-11-19T00:13:04;21.30;;;10.90;;
76552;SDS011;65395;53.168;18.156;2023-11-19T00:15:33;22.70;;;12.30;;
76552;SDS011;65395;53.168;18.156;2023-11-19T00:18:00;22.80;;;11.30;;
76552;SDS011;65395;53.168;18.156;2023-11-19T00:20:31;23.10;;;10.60;;
76552;SDS011;65395;53.168;18.156;2023-11-19T00:22:58;20.90;;;10.60;;
76552;SDS011;65395;53.168;18.156;2023-11-19T00:25:25;27.30;;;11.80;;
76552;SDS011;65395;53.168;18.156;2023-11-19T00:27:52;25.20;;;11.40;;
76552;SDS011;65395;53.168;18.156;2023-11-19T00:30:19;23.50;;;10.90;;
76552;SDS011;65395;53.168;18.156;2023-11-19T00:32:46;23.90;;;11.80;;
76552;SDS011;65395;53.168;18.156;2023-11-19T00:35:13;21.90;;;11.10;;
76552;SDS011;65395;53.168;18.156;2023-11-19T00:37:40;25.90;;;12.10;;
76552;SDS011;65395;53.168;18.156;2023-11-19T00:40:09;24.90;;;11.60;;
76552;SDS011;65395;53.168;18.156;2023-11-19T00:42:36;24.40;;;11.70;;
76552;SDS011;65395;53.168;18.156;2023-11-19T00:45:05;22.60;;;11.00;;
76552;SDS011;65395;53.168;18.156;2023-11-19T00:47:35;24.40;;;11.50;;
76552;SDS011;65395;53.168;18.156;2023-11-19T00:50:03;26.70;;;10.90;;
76552;SDS011;65395;53.168;18.156;2023-11-19T00:52:31;24.90;;;11.70;;
76552;SDS011;65395;53.168;18.156;2023-11-19T00:54:58;25.60;;;12.10;;
76552;SDS011;65395;53.168;18.156;2023-11-19T00:57:25;24.50;;;11.70;;
76552;SDS011;65395;53.168;18.156;2023-11-19T00:59:53;27.20;;;12.20;;
76552;SDS011;65395;53.168;18.156;2023-11-19T01:02:20;24.80;;;11.80;;
76552;SDS011;65395;53.168;18.156;2023-11-19T01:04:47;27.10;;;12.20;;
76552;SDS011;65395;53.168;18.156;2023-11-19T01:07:14;24.20;;;11.80;;
76552;SDS011;65395;53.168;18.156;2023-11-19T01:09:42;23.20;;;11.20;;
76552;SDS011;65395;53.168;18.156;2023-11-19T01:12:09;26.20;;;12.10;;
76552;SDS011;65395;53.168;18.156;2023-11-19T01:14:37;25.30;;;12.00;;
76552;SDS011;65395;53.168;18.156;2023-11-19T01:17:04;26.70;;;11.50;;
76552;SDS011;65395;53.168;18.156;2023-11-19T01:19:32;27.00;;;11.70;;
76552;SDS011;65395;53.168;18.156;2023-11-19T01:21:59;26.50;;;12.50;;
76552;SDS011;65395;53.168;18.156;2023-11-19T01:24:25;30.40;;;13.90;;
76552;SDS011;65395;53.168;18.156;2023-11-19T01:26:55;31.20;;;14.00;;
76552;SDS011;65395;53.168;18.156;2023-11-19T01:29:24;33.30;;;13.70;;
76552;SDS011;65395;53.168;18.156;2023-11-19T01:31:50;29.10;;;13.40;;
76552;SDS011;65395;53.168;18.156;2023-11-19T01:34:18;30.10;;;13.40;;
76552;SDS011;65395;53.168;18.156;2023-11-19T01:36:46;30.90;;;13.90;;
76552;SDS011;65395;53.168;18.156;2023-11-19T01:39:15;30.40;;;13.70;;
76552;SDS011;65395;53.168;18.156;2023-11-19T01:41:43;29.50;;;13.40;;
76552;SDS011;65395;53.168;18.156;2023-11-19T01:44:10;30.50;;;14.20;;
76552;SDS011;65395;53.168;18.156;2023-11-19T01:46:40;30.60;;;13.60;;
76552;SDS011;65395;53.168;18.156;2023-11-19T01:49:08;30.20;;;14.00;;
76552;SDS011;65395;53.168;18.156;2023-11-19T01:51:35;29.90;;;13.90;;
76552;SDS011;65395;53.168;18.156;2023-11-19T01:54:02;30.30;;;13.20;;
76552;SDS011;65395;53.168;18.156;2023-11-19T01:56:30;31.70;;;13.40;;
76552;SDS011;65395;53.168;18.156;2023-11-19T01:58:58;29.20;;;14.10;;
76552;SDS011;65395;53.168;18.156;2023-11-19T02:01:25;30.20;;;13.70;;
76552;SDS011;65395;53.168;18.156;2023-11-19T02:03:53;29.70;;;13.50;;
76552;SDS011;65395;53.168;18.156;2023-11-19T02:06:20;31.50;;;14.00;;
76552;SDS011;65395;53.168;18.156;2023-11-19T02:08:47;34.70;;;14.20;;
76552;SDS011;65395;53.168;18.156;2023-11-19T02:11:14;30.30;;;14.00;;
76552;SDS011;65395;53.168;18.156;2023-11-19T02:13:41;31.50;;;13.50;;
76552;SDS011;65395;53.168;18.156;2023-11-19T02:16:10;29.90;;;14.00;;
76552;SDS011;65395;53.168;18.156;2023-11-19T02:18:37;34.20;;;15.00;;
76552;SDS011;65395;53.168;18.156;2023-11-19T02:21:04;32.30;;;13.90;;
76552;SDS011;65395;53.168;18.156;2023-11-19T02:23:32;40.50;;;15.80;;
76552;SDS011;65395;53.168;18.156;2023-11-19T02:28:44;36.00;;;15.80;;
76552;SDS011;65395;53.168;18.156;2023-11-19T02:31:12;36.00;;;16.20;;
76552;SDS011;65395;53.168;18.156;2023-11-19T02:33:39;37.90;;;15.20;;
76552;SDS011;65395;53.168;18.156;2023-11-19T02:36:06;32.80;;;15.20;;
76552;SDS011;65395;53.168;18.156;2023-11-19T02:38:34;34.60;;;15.20;;
76552;SDS011;65395;53.168;18.156;2023-11-19T02:41:03;37.70;;;16.60;;
76552;SDS011;65395;53.168;18.156;2023-11-19T02:43:32;36.00;;;15.10;;
76552;SDS011;65395;53.168;18.156;2023-11-19T02:46:01;36.60;;;16.20;;
76552;SDS011;65395;53.168;18.156;2023-11-19T02:48:29;40.40;;;16.00;;
76552;SDS011;65395;53.168;18.156;2023-11-19T02:50:57;32.30;;;14.40;;
76552;SDS011;65395;53.168;18.156;2023-11-19T02:53:24;36.10;;;15.40;;
76552;SDS011;65395;53.168;18.156;2023-11-19T02:55:53;39.80;;;17.00;;
76552;SDS011;65395;53.168;18.156;2023-11-19T02:58:27;35.10;;;15.80;;
76552;SDS011;65395;53.168;18.156;2023-11-19T03:00:55;45.40;;;16.80;;
76552;SDS011;65395;53.168;18.156;2023-11-19T03:03:27;42.70;;;16.70;;
76552;SDS011;65395;53.168;18.156;2023-11-19T03:05:57;42.20;;;17.40;;
76552;SDS011;65395;53.168;18.156;2023-11-19T03:08:24;39.10;;;16.80;;
76552;SDS011;65395;53.168;18.156;2023-11-19T03:10:51;42.00;;;17.80;;
76552;SDS011;65395;53.168;18.156;2023-11-19T03:13:18;46.60;;;18.70;;
76552;SDS011;65395;53.168;18.156;2023-11-19T03:15:45;41.10;;;17.70;;
76552;SDS011;65395;53.168;18.156;2023-11-19T03:18:12;39.70;;;17.00;;
76552;SDS011;65395;53.168;18.156;2023-11-19T03:20:39;43.50;;;18.00;;
76552;SDS011;65395;53.168;18.156;2023-11-19T03:23:06;44.10;;;17.80;;
76552;SDS011;65395;53.168;18.156;2023-11-19T03:25:33;39.30;;;16.80;;
76552;SDS011;65395;53.168;18.156;2023-11-19T03:28:01;38.20;;;16.80;;
76552;SDS011;65395;53.168;18.156;2023-11-19T03:30:29;45.60;;;17.40;;
76552;SDS011;65395;53.168;18.156;2023-11-19T03:32:57;41.00;;;17.00;;
76552;SDS011;65395;53.168;18.156;2023-11-19T03:35:24;38.40;;;16.70;;
76552;SDS011;65395;53.168;18.156;2023-11-19T03:37:51;39.90;;;16.90;;
76552;SDS011;65395;53.168;18.156;2023-11-19T03:40:18;41.20;;;17.50;;
76552;SDS011;65395;53.168;18.156;2023-11-19T03:42:46;36.70;;;16.80;;
76552;SDS011;65395;53.168;18.156;2023-11-19T03:45:13;43.50;;;18.50;;
76552;SDS011;65395;53.168;18.156;2023-11-19T03:47:42;36.90;;;15.80;;
76552;SDS011;65395;53.168;18.156;2023-11-19T03:50:09;40.50;;;16.90;;
76552;SDS011;65395;53.168;18.156;2023-11-19T03:52:36;33.50;;;15.90;;
76552;SDS011;65395;53.168;18.156;2023-11-19T03:55:03;36.70;;;16.30;;
76552;SDS011;65395;53.168;18.156;2023-11-19T03:57:32;35.60;;;16.30;;
76552;SDS011;65395;53.168;18.156;2023-11-19T03:59:59;37.00;;;16.60;;
76552;SDS011;65395;53.168;18.156;2023-11-19T04:02:26;38.00;;;15.60;;
76552;SDS011;65395;53.168;18.156;2023-11-19T04:04:54;37.10;;;16.20;;
76552;SDS011;65395;53.168;18.156;2023-11-19T04:07:21;39.90;;;16.40;;
76552;SDS011;65395;53.168;18.156;2023-11-19T04:09:48;36.00;;;16.10;;
76552;SDS011;65395;53.168;18.156;2023-11-19T04:12:15;38.20;;;16.00;;
76552;SDS011;65395;53.168;18.156;2023-11-19T04:14:42;39.80;;;17.30;;
76552;SDS011;65395;53.168;18.156;2023-11-19T04:17:09;35.90;;;15.50;;
76552;SDS011;65395;53.168;18.156;2023-11-19T04:19:36;37.80;;;16.30;;
76552;SDS011;65395;53.168;18.156;2023-11-19T04:22:05;37.90;;;16.60;;
76552;SDS011;65395;53.168;18.156;2023-11-19T04:24:32;44.30;;;18.70;;
76552;SDS011;65395;53.168;18.156;2023-11-19T04:26:59;39.20;;;17.90;;
76552;SDS011;65395;53.168;18.156;2023-11-19T04:29:26;43.10;;;18.60;;
76552;SDS011;65395;53.168;18.156;2023-11-19T04:31:54;42.60;;;18.10;;
76552;SDS011;65395;53.168;18.156;2023-11-19T04:34:21;48.50;;;19.00;;
76552;SDS011;65395;53.168;18.156;2023-11-19T04:36:48;40.80;;;18.40;;
76552;SDS011;65395;53.168;18.156;2023-11-19T04:39:15;43.00;;;18.10;;
76552;SDS011;65395;53.168;18.156;2023-11-19T04:41:45;44.50;;;17.80;;
76552;SDS011;65395;53.168;18.156;2023-11-19T04:44:15;38.30;;;17.50;;
76552;SDS011;65395;53.168;18.156;2023-11-19T04:46:44;43.00;;;18.30;;
76552;SDS011;65395;53.168;18.156;2023-11-19T04:49:11;39.90;;;17.60;;
76552;SDS011;65395;53.168;18.156;2023-11-19T04:51:40;39.90;;;18.60;;
76552;SDS011;65395;53.168;18.156;2023-11-19T04:54:09;38.10;;;17.20;;
76552;SDS011;65395;53.168;18.156;2023-11-19T04:56:37;43.60;;;17.50;;
76552;SDS011;65395;53.168;18.156;2023-11-19T04:59:04;40.80;;;16.90;;
76552;SDS011;65395;53.168;18.156;2023-11-19T05:01:32;43.90;;;19.50;;
76552;SDS011;65395;53.168;18.156;2023-11-19T05:03:59;38.90;;;16.90;;
76552;SDS011;65395;53.168;18.156;2023-11-19T05:06:28;36.60;;;16.30;;
76552;SDS011;65395;53.168;18.156;2023-11-19T05:08:56;37.30;;;16.40;;
76552;SDS011;65395;53.168;18.156;2023-11-19T05:11:25;40.90;;;16.30;;
76552;SDS011;65395;53.168;18.156;2023-11-19T05:13:52;37.70;;;16.90;;
76552;SDS011;65395;53.168;18.156;2023-11-19T05:16:18;34.90;;;15.60;;
76552;SDS011;65395;53.168;18.156;2023-11-19T05:18:47;34.90;;;15.80;;
76552;SDS011;65395;53.168;18.156;2023-11-19T05:21:14;35.30;;;15.50;;
76552;SDS011;65395;53.168;18.156;2023-11-19T05:23:41;36.00;;;16.20;;
76552;SDS011;65395;53.168;18.156;2023-11-19T05:26:08;40.00;;;16.30;;
76552;SDS011;65395;53.168;18.156;2023-11-19T05:28:38;37.10;;;16.80;;
76552;SDS011;65395;53.168;18.156;2023-11-19T05:31:05;34.10;;;16.00;;
76552;SDS011;65395;53.168;18.156;2023-11-19T05:33:32;31.60;;;15.70;;
76552;SDS011;65395;53.168;18.156;2023-11-19T05:35:59;38.20;;;16.60;;
76552;SDS011;65395;53.168;18.156;2023-11-19T05:38:26;30.70;;;15.30;;
76552;SDS011;65395;53.168;18.156;2023-11-19T05:40:53;34.20;;;14.60;;
76552;SDS011;65395;53.168;18.156;2023-11-19T05:43:20;33.60;;;14.70;;
76552;SDS011;65395;53.168;18.156;2023-11-19T05:45:47;37.90;;;15.50;;
76552;SDS011;65395;53.168;18.156;2023-11-19T05:48:14;33.20;;;15.00;;
76552;SDS011;65395;53.168;18.156;2023-11-19T05:50:41;32.90;;;14.50;;
76552;SDS011;65395;53.168;18.156;2023-11-19T05:53:08;27.50;;;13.50;;
76552;SDS011;65395;53.168;18.156;2023-11-19T05:55:36;31.20;;;13.70;;
76552;SDS011;65395;53.168;18.156;2023-11-19T05:58:11;31.00;;;13.30;;
76552;SDS011;65395;53.168;18.156;2023-11-19T06:00:38;31.80;;;13.50;;
76552;SDS011;65395;53.168;18.156;2023-11-19T06:03:06;25.90;;;13.60;;
76552;SDS011;65395;53.168;18.156;2023-11-19T06:05:34;24.20;;;11.90;;
76552;SDS011;65395;53.168;18.156;2023-11-19T06:08:01;29.80;;;13.00;;
76552;SDS011;65395;53.168;18.156;2023-11-19T06:10:28;27.30;;;13.50;;
76552;SDS011;65395;53.168;18.156;2023-11-19T06:12:58;27.40;;;13.00;;
76552;SDS011;65395;53.168;18.156;2023-11-19T06:15:26;26.70;;;12.90;;
76552;SDS011;65395;53.168;18.156;2023-11-19T06:17:53;26.20;;;12.70;;
76552;SDS011;65395;53.168;18.156;2023-11-19T06:20:21;25.00;;;11.90;;
76552;SDS011;65395;53.168;18.156;2023-11-19T06:22:48;26.70;;;12.20;;
76552;SDS011;65395;53.168;18.156;2023-11-19T06:25:15;23.70;;;11.80;;
76552;SDS011;65395;53.168;18.156;2023-11-19T06:27:42;27.10;;;12.20;;
76552;SDS011;65395;53.168;18.156;2023-11-19T06:30:09;26.40;;;12.10;;
76552;SDS011;65395;53.168;18.156;2023-11-19T06:32:36;26.10;;;12.20;;
76552;SDS011;65395;53.168;18.156;2023-11-19T06:35:03;21.50;;;11.10;;
76552;SDS011;65395;53.168;18.156;2023-11-19T06:37:31;25.80;;;12.00;;
76552;SDS011;65395;53.168;18.156;2023-11-19T06:39:58;24.10;;;11.60;;
76552;SDS011;65395;53.168;18.156;2023-11-19T06:42:25;23.10;;;11.00;;
76552;SDS011;65395;53.168;18.156;2023-11-19T06:44:52;28.00;;;11.90;;
76552;SDS011;65395;53.168;18.156;2023-11-19T06:47:19;26.00;;;11.60;;
76552;SDS011;65395;53.168;18.156;2023-11-19T06:49:46;24.10;;;11.40;;
76552;SDS011;65395;53.168;18.156;2023-11-19T06:52:13;24.20;;;11.00;;
76552;SDS011;65395;53.168;18.156;2023-11-19T06:54:40;21.50;;;11.70;;
76552;SDS011;65395;53.168;18.156;2023-11-19T06:57:07;22.70;;;11.30;;
76552;SDS011;65395;53.168;18.156;2023-11-19T06:59:35;23.10;;;10.70;;
76552;SDS011;65395;53.168;18.156;2023-11-19T07:02:02;22.80;;;11.20;;
76552;SDS011;65395;53.168;18.156;2023-11-19T07:04:31;23.20;;;10.70;;
76552;SDS011;65395;53.168;18.156;2023-11-19T07:06:59;22.20;;;10.70;;
76552;SDS011;65395;53.168;18.156;2023-11-19T07:09:26;21.00;;;10.80;;
76552;SDS011;65395;53.168;18.156;2023-11-19T07:11:54;22.30;;;11.20;;
76552;SDS011;65395;53.168;18.156;2023-11-19T07:14:21;22.60;;;11.20;;
76552;SDS011;65395;53.168;18.156;2023-11-19T07:16:49;24.70;;;10.70;;
76552;SDS011;65395;53.168;18.156;2023-11-19T07:19:16;23.50;;;11.20;;
76552;SDS011;65395;53.168;18.156;2023-11-19T07:21:43;21.80;;;10.60;;
76552;SDS011;65395;53.168;18.156;2023-11-19T07:24:10;26.90;;;11.10;;
76552;SDS011;65395;53.168;18.156;2023-11-19T07:26:42;22.60;;;10.90;;
76552;SDS011;65395;53.168;18.156;2023-11-19T07:29:10;25.20;;;12.10;;
76552;SDS011;65395;53.168;18.156;2023-11-19T07:31:37;21.00;;;10.40;;
76552;SDS011;65395;53.168;18.156;2023-11-19T07:34:04;23.80;;;10.90;;
76552;SDS011;65395;53.168;18.156;2023-11-19T07:36:32;23.80;;;11.80;;
76552;SDS011;65395;53.168;18.156;2023-11-19T07:38:59;25.00;;;11.50;;
76552;SDS011;65395;53.168;18.156;2023-11-19T07:41:26;22.60;;;10.70;;
76552;SDS011;65395;53.168;18.156;2023-11-19T07:43:54;27.00;;;12.00;;
76552;SDS011;65395;53.168;18.156;2023-11-19T07:46:21;23.50;;;11.20;;
76552;SDS011;65395;53.168;18.156;2023-11-19T07:48:48;23.40;;;11.10;;
76552;SDS011;65395;53.168;18.156;2023-11-19T07:51:15;24.40;;;11.70;;
76552;SDS011;65395;53.168;18.156;2023-11-19T07:53:43;24.70;;;11.20;;
76552;SDS011;65395;53.168;18.156;2023-11-19T07:56:09;24.90;;;11.40;;
76552;SDS011;65395;53.168;18.156;2023-11-19T07:58:36;21.70;;;10.50;;
76552;SDS011;65395;53.168;18.156;2023-11-19T08:01:04;21.20;;;10.90;;
76552;SDS011;65395;53.168;18.156;2023-11-19T08:03:31;22.30;;;11.30;;
76552;SDS011;65395;53.168;18.156;2023-11-19T08:06:00;22.50;;;11.50;;
76552;SDS011;65395;53.168;18.156;2023-11-19T08:08:28;23.90;;;10.70;;
76552;SDS011;65395;53.168;18.156;2023-11-19T08:10:56;21.90;;;12.20;;
76552;SDS011;65395;53.168;18.156;2023-11-19T08:13:23;21.70;;;10.80;;
76552;SDS011;65395;53.168;18.156;2023-11-19T08:15:51;19.90;;;10.70;;
76552;SDS011;65395;53.168;18.156;2023-11-19T08:18:18;23.00;;;11.70;;
76552;SDS011;65395;53.168;18.156;2023-11-19T08:20:45;21.40;;;10.50;;
76552;SDS011;65395;53.168;18.156;2023-11-19T08:23:13;22.20;;;11.50;;
76552;SDS011;65395;53.168;18.156;2023-11-19T08:25:40;22.90;;;11.50;;
76552;SDS011;65395;53.168;18.156;2023-11-19T08:28:07;20.90;;;10.80;;
76552;SDS011;65395;53.168;18.156;2023-11-19T08:30:34;21.10;;;10.50;;
76552;SDS011;65395;53.168;18.156;2023-11-19T08:33:01;23.50;;;11.70;;
76552;SDS011;65395;53.168;18.156;2023-11-19T08:35:29;23.70;;;11.10;;
76552;SDS011;65395;53.168;18.156;2023-11-19T08:37:56;23.20;;;11.30;;
76552;SDS011;65395;53.168;18.156;2023-11-19T08:40:23;24.20;;;12.50;;
76552;SDS011;65395;53.168;18.156;2023-11-19T08:42:52;25.00;;;12.70;;
76552;SDS011;65395;53.168;18.156;2023-11-19T08:45:18;22.60;;;11.60;;
76552;SDS011;65395;53.168;18.156;2023-11-19T08:47:45;22.60;;;11.50;;
76552;SDS011;65395;53.168;18.156;2023-11-19T08:50:12;25.70;;;12.80;;
76552;SDS011;65395;53.168;18.156;2023-11-19T08:52:39;25.10;;;11.50;;
76552;SDS011;65395;53.168;18.156;2023-11-19T08:55:06;23.90;;;11.60;;
76552;SDS011;65395;53.168;18.156;2023-11-19T08:57:33;25.80;;;12.00;;
76552;SDS011;65395;53.168;18.156;2023-11-19T09:00:00;27.10;;;12.50;;
76552;SDS011;65395;53.168;18.156;2023-11-19T09:02:27;24.70;;;11.90;;
76552;SDS011;65395;53.168;18.156;2023-11-19T09:04:54;28.30;;;13.60;;
76552;SDS011;65395;53.168;18.156;2023-11-19T09:07:21;25.80;;;12.50;;
76552;SDS011;65395;53.168;18.156;2023-11-19T09:09:48;24.50;;;12.60;;
76552;SDS011;65395;53.168;18.156;2023-11-19T09:12:15;25.70;;;12.50;;
76552;SDS011;65395;53.168;18.156;2023-11-19T09:14:42;28.80;;;13.10;;
76552;SDS011;65395;53.168;18.156;2023-11-19T09:17:12;27.90;;;12.70;;
76552;SDS011;65395;53.168;18.156;2023-11-19T09:19:39;25.80;;;12.20;;
76552;SDS011;65395;53.168;18.156;2023-11-19T09:22:05;29.80;;;13.50;;
76552;SDS011;65395;53.168;18.156;2023-11-19T09:24:32;27.50;;;12.90;;
76552;SDS011;65395;53.168;18.156;2023-11-19T09:26:59;27.40;;;13.40;;
76552;SDS011;65395;53.168;18.156;2023-11-19T09:29:26;27.80;;;13.50;;
76552;SDS011;65395;53.168;18.156;2023-11-19T09:31:53;26.50;;;13.50;;
76552;SDS011;65395;53.168;18.156;2023-11-19T09:34:20;27.80;;;13.50;;
76552;SDS011;65395;53.168;18.156;2023-11-19T09:36:47;27.20;;;13.00;;
76552;SDS011;65395;53.168;18.156;2023-11-19T09:39:14;28.30;;;13.40;;
76552;SDS011;65395;53.168;18.156;2023-11-19T09:41:44;29.40;;;14.20;;
76552;SDS011;65395;53.168;18.156;2023-11-19T09:44:11;28.00;;;13.70;;
76552;SDS011;65395;53.168;18.156;2023-11-19T09:46:40;32.80;;;14.90;;
76552;SDS011;65395;53.168;18.156;2023-11-19T09:49:08;28.70;;;14.10;;
76552;SDS011;65395;53.168;18.156;2023-11-19T09:51:36;28.10;;;14.30;;
76552;SDS011;65395;53.168;18.156;2023-11-19T09:54:03;34.00;;;14.70;;
76552;SDS011;65395;53.168;18.156;2023-11-19T09:56:30;25.70;;;13.60;;
76552;SDS011;65395;53.168;18.156;2023-11-19T09:59:00;28.00;;;13.80;;
76552;SDS011;65395;53.168;18.156;2023-11-19T10:01:27;32.20;;;15.40;;
76552;SDS011;65395;53.168;18.156;2023-11-19T10:03:54;30.90;;;14.70;;
76552;SDS011;65395;53.168;18.156;2023-11-19T10:06:22;29.80;;;14.80;;
76552;SDS011;65395;53.168;18.156;2023-11-19T10:08:51;32.40;;;14.10;;
76552;SDS011;65395;53.168;18.156;2023-11-19T10:11:18;30.70;;;14.50;;
76552;SDS011;65395;53.168;18.156;2023-11-19T10:13:45;28.80;;;14.70;;
76552;SDS011;65395;53.168;18.156;2023-11-19T10:16:14;29.20;;;14.20;;
76552;SDS011;65395;53.168;18.156;2023-11-19T10:18:45;31.50;;;15.40;;
76552;SDS011;65395;53.168;18.156;2023-11-19T10:21:13;30.20;;;15.40;;
76552;SDS011;65395;53.168;18.156;2023-11-19T10:26:22;31.60;;;14.50;;
76552;SDS011;65395;53.168;18.156;2023-11-19T10:28:50;32.40;;;15.80;;
76552;SDS011;65395;53.168;18.156;2023-11-19T10:31:17;28.80;;;14.60;;
76552;SDS011;65395;53.168;18.156;2023-11-19T10:33:45;29.70;;;14.10;;
76552;SDS011;65395;53.168;18.156;2023-11-19T10:36:13;34.80;;;15.30;;
76552;SDS011;65395;53.168;18.156;2023-11-19T10:38:40;31.30;;;14.70;;
76552;SDS011;65395;53.168;18.156;2023-11-19T10:43:54;32.10;;;14.70;;
76552;SDS011;65395;53.168;18.156;2023-11-19T10:46:21;31.60;;;15.10;;
76552;SDS011;65395;53.168;18.156;2023-11-19T10:48:49;33.60;;;15.30;;
76552;SDS011;65395;53.168;18.156;2023-11-19T10:51:18;35.40;;;15.30;;
76552;SDS011;65395;53.168;18.156;2023-11-19T10:53:50;34.30;;;15.60;;
76552;SDS011;65395;53.168;18.156;2023-11-19T10:56:19;30.20;;;14.40;;
76552;SDS011;65395;53.168;18.156;2023-11-19T10:58:47;33.90;;;15.30;;
76552;SDS011;65395;53.168;18.156;2023-11-19T11:01:19;33.60;;;15.10;;
76552;SDS011;65395;53.168;18.156;2023-11-19T11:03:47;35.60;;;15.40;;
76552;SDS011;65395;53.168;18.156;2023-11-19T11:06:17;33.00;;;15.10;;
76552;SDS011;65395;53.168;18.156;2023-11-19T11:08:46;32.10;;;15.20;;
76552;SDS011;65395;53.168;18.156;2023-11-19T11:11:15;32.50;;;15.50;;
76552;SDS011;65395;53.168;18.156;2023-11-19T11:13:43;33.00;;;15.10;;
76552;SDS011;65395;53.168;18.156;2023-11-19T11:16:11;33.70;;;15.30;;
76552;SDS011;65395;53.168;18.156;2023-11-19T11:18:40;33.20;;;15.80;;
76552;SDS011;65395;53.168;18.156;2023-11-19T11:21:09;35.60;;;16.10;;
76552;SDS011;65395;53.168;18.156;2023-11-19T11:23:47;37.10;;;16.60;;
76552;SDS011;65395;53.168;18.156;2023-11-19T11:26:35;37.10;;;16.60;;
76552;SDS011;65395;53.168;18.156;2023-11-19T11:29:26;34.30;;;16.10;;
76552;SDS011;65395;53.168;18.156;2023-11-19T11:37:49;34.70;;;15.50;;
76552;SDS011;65395;53.168;18.156;2023-11-19T11:40:19;35.20;;;15.80;;
76552;SDS011;65395;53.168;18.156;2023-11-19T11:42:46;34.40;;;16.00;;
76552;SDS011;65395;53.168;18.156;2023-11-19T11:45:14;40.00;;;17.10;;
76552;SDS011;65395;53.168;18.156;2023-11-19T11:50:35;35.60;;;16.70;;
76552;SDS011;65395;53.168;18.156;2023-11-19T11:53:13;36.60;;;15.90;;
76552;SDS011;65395;53.168;18.156;2023-11-19T11:58:26;36.20;;;16.60;;
76552;SDS011;65395;53.168;18.156;2023-11-19T12:00:57;36.30;;;16.60;;
76552;SDS011;65395;53.168;18.156;2023-11-19T12:03:27;38.50;;;17.60;;
76552;SDS011;65395;53.168;18.156;2023-11-19T12:05:55;37.40;;;16.30;;
76552;SDS011;65395;53.168;18.156;2023-11-19T12:08:24;39.50;;;17.10;;
76552;SDS011;65395;53.168;18.156;2023-11-19T12:10:55;42.90;;;18.10;;
76552;SDS011;65395;53.168;18.156;2023-11-19T12:13:42;42.10;;;18.00;;
76552;SDS011;65395;53.168;18.156;2023-11-19T12:16:15;39.30;;;16.80;;
76552;SDS011;65395;53.168;18.156;2023-11-19T12:18:42;40.50;;;16.90;;
76552;SDS011;65395;53.168;18.156;2023-11-19T12:21:09;45.40;;;18.30;;
76552;SDS011;65395;53.168;18.156;2023-11-19T12:23:43;42.80;;;18.40;;
76552;SDS011;65395;53.168;18.156;2023-11-19T12:26:20;38.70;;;17.30;;
76552;SDS011;65395;53.168;18.156;2023-11-19T12:28:58;42.40;;;17.50;;
76552;SDS011;65395;53.168;18.156;2023-11-19T12:31:26;41.00;;;17.20;;
76552;SDS011;65395;53.168;18.156;2023-11-19T12:33:53;43.10;;;17.30;;
76552;SDS011;65395;53.168;18.156;2023-11-19T12:36:20;40.80;;;16.50;;
76552;SDS011;65395;53.168;18.156;2023-11-19T12:38:47;37.30;;;17.20;;
76552;SDS011;65395;53.168;18.156;2023-11-19T12:41:15;38.10;;;17.20;;
76552;SDS011;65395;53.168;18.156;2023-11-19T12:43:46;34.90;;;16.90;;
76552;SDS011;65395;53.168;18.156;2023-11-19T12:46:17;38.00;;;16.50;;
76552;SDS011;65395;53.168;18.156;2023-11-19T12:48:46;38.60;;;16.60;;
76552;SDS011;65395;53.168;18.156;2023-11-19T12:51:14;38.50;;;17.40;;
76552;SDS011;65395;53.168;18.156;2023-11-19T12:53:50;35.30;;;16.80;;
76552;SDS011;65395;53.168;18.156;2023-11-19T12:56:24;37.90;;;16.20;;
76552;SDS011;65395;53.168;18.156;2023-11-19T12:58:51;35.20;;;16.10;;
76552;SDS011;65395;53.168;18.156;2023-11-19T13:01:18;38.50;;;15.80;;
76552;SDS011;65395;53.168;18.156;2023-11-19T13:03:46;36.70;;;16.70;;
76552;SDS011;65395;53.168;18.156;2023-11-19T13:06:15;36.30;;;15.60;;
76552;SDS011;65395;53.168;18.156;2023-11-19T13:08:43;32.60;;;15.70;;
76552;SDS011;65395;53.168;18.156;2023-11-19T13:11:12;36.40;;;15.40;;
76552;SDS011;65395;53.168;18.156;2023-11-19T13:16:19;39.20;;;17.00;;
76552;SDS011;65395;53.168;18.156;2023-11-19T13:18:46;38.60;;;17.00;;
76552;SDS011;65395;53.168;18.156;2023-11-19T13:21:13;34.40;;;15.50;;
76552;SDS011;65395;53.168;18.156;2023-11-19T13:23:40;37.50;;;16.70;;
76552;SDS011;65395;53.168;18.156;2023-11-19T13:26:08;40.20;;;18.90;;
76552;SDS011;65395;53.168;18.156;2023-11-19T13:28:34;38.20;;;19.00;;
76552;SDS011;65395;53.168;18.156;2023-11-19T13:31:01;37.20;;;17.90;;
76552;SDS011;65395;53.168;18.156;2023-11-19T13:33:29;33.00;;;16.50;;
76552;SDS011;65395;53.168;18.156;2023-11-19T13:35:56;37.90;;;17.40;;
76552;SDS011;65395;53.168;18.156;2023-11-19T13:38:23;34.80;;;16.30;;
76552;SDS011;65395;53.168;18.156;2023-11-19T13:40:50;32.90;;;14.80;;
76552;SDS011;65395;53.168;18.156;2023-11-19T13:43:17;33.40;;;14.80;;
76552;SDS011;65395;53.168;18.156;2023-11-19T13:45:44;33.30;;;15.50;;
76552;SDS011;65395;53.168;18.156;2023-11-19T13:48:11;33.50;;;15.40;;
76552;SDS011;65395;53.168;18.156;2023-11-19T13:50:38;38.30;;;16.10;;
76552;SDS011;65395;53.168;18.156;2023-11-19T13:53:05;35.90;;;15.80;;
76552;SDS011;65395;53.168;18.156;2023-11-19T13:55:32;38.40;;;16.70;;
76552;SDS011;65395;53.168;18.156;2023-11-19T13:57:59;32.80;;;15.50;;
76552;SDS011;65395;53.168;18.156;2023-11-19T14:00:26;34.10;;;16.40;;
76552;SDS011;65395;53.168;18.156;2023-11-19T14:02:53;35.10;;;16.10;;
76552;SDS011;65395;53.168;18.156;2023-11-19T14:05:20;31.50;;;14.90;;
76552;SDS011;65395;53.168;18.156;2023-11-19T14:07:47;30.00;;;14.10;;
76552;SDS011;65395;53.168;18.156;2023-11-19T14:10:14;31.40;;;14.30;;
76552;SDS011;65395;53.168;18.156;2023-11-19T14:12:41;30.10;;;13.10;;
76552;SDS011;65395;53.168;18.156;2023-11-19T14:15:09;29.10;;;12.90;;
76552;SDS011;65395;53.168;18.156;2023-11-19T14:17:38;31.80;;;14.70;;
76552;SDS011;65395;53.168;18.156;2023-11-19T14:20:06;31.90;;;13.80;;
76552;SDS011;65395;53.168;18.156;2023-11-19T14:22:42;34.60;;;14.80;;
76552;SDS011;65395;53.168;18.156;2023-11-19T14:25:10;29.00;;;13.00;;
76552;SDS011;65395;53.168;18.156;2023-11-19T14:27:38;32.20;;;14.00;;
76552;SDS011;65395;53.168;18.156;2023-11-19T14:30:07;31.50;;;14.20;;
76552;SDS011;65395;53.168;18.156;2023-11-19T14:32:37;30.30;;;13.20;;
76552;SDS011;65395;53.168;18.156;2023-11-19T14:35:05;29.20;;;12.90;;